sensor_id;sensor_type;location;lat;lon;timestamp;pressure;altitude;pressure_sealevel;temperature;humidity
20077;BME280;12348;42.710;23.378;2022-08-05T00:01:22;95265.41;;;18.83;100.00
20077;BME280;12348;42.710;23.378;2022-08-05T00:03:55;95253.91;;;18.77;100.00
20077;BME280;12348;42.710;23.378;2022-08-05T00:06:22;95251.63;;;18.79;100.00
20077;BME280;12348;42.710;23.378;2022-08-05T00:08:49;95258.44;;;18.73;100.00
20077;BME280;12348;42.710;23.378;2022-08-05T00:11:16;95249.81;;;18.71;100.00
20077;BME280;12348;42.710;23.378;2022-08-05T00:13:56;95250.31;;;18.64;100.00
20077;BME280;12348;42.710;23.378;2022-08-05T00:16:23;95239.03;;;18.75;100.00
20077;BME280;12348;42.710;23.378;2022-08-05T00:18:58;95241.28;;;18.73;100.00
20077;BME280;12348;42.710;23.378;2022-08-05T00:21:25;95237.75;;;18.72;100.00
20077;BME280;12348;42.710;23.378;2022-08-05T00:24:00;95242.88;;;18.74;100.00
20077;BME280;12348;42.710;23.378;2022-08-05T00:26:27;95238.28;;;18.65;100.00
20077;BME280;12348;42.710;23.378;2022-08-05T00:28:59;95243.91;;;18.48;100.00
20077;BME280;12348;42.710;23.378;2022-08-05T00:31:26;95250.78;;;18.33;100.00
20077;BME280;12348;42.710;23.378;2022-08-05T00:33:58;95251.38;;;18.27;100.00
20077;BME280;12348;42.710;23.378;2022-08-05T00:36:25;95245.66;;;18.20;100.00
20077;BME280;12348;42.710;23.378;2022-08-05T00:39:00;95240.66;;;18.22;100.00
20077;BME280;12348;42.710;23.378;2022-08-05T00:41:29;95234.75;;;18.20;100.00
20077;BME280;12348;42.710;23.378;2022-08-05T00:43:59;95235.75;;;18.15;100.00
20077;BME280;12348;42.710;23.378;2022-08-05T00:46:26;95238.53;;;18.06;100.00
20077;BME280;12348;42.710;23.378;2022-08-05T00:48:55;95234.91;;;18.02;100.00
20077;BME280;12348;42.710;23.378;2022-08-05T00:51:22;95243.34;;;18.09;100.00
20077;BME280;12348;42.710;23.378;2022-08-05T00:53:55;95240.66;;;18.22;100.00
20077;BME280;12348;42.710;23.378;2022-08-05T00:56:22;95238.09;;;18.04;100.00
20077;BME280;12348;42.710;23.378;2022-08-05T00:58:49;95236.63;;;18.07;100.00
20077;BME280;12348;42.710;23.378;2022-08-05T01:01:17;95240.03;;;18.04;100.00
20077;BME280;12348;42.710;23.378;2022-08-05T01:03:44;95241.44;;;17.89;100.00
20077;BME280;12348;42.710;23.378;2022-08-05T01:06:18;95233.31;;;17.80;100.00
20077;BME280;12348;42.710;23.378;2022-08-05T01:08:46;95227.25;;;17.96;100.00
20077;BME280;12348;42.710;23.378;2022-08-05T01:11:17;95234.97;;;17.93;100.00
20077;BME280;12348;42.710;23.378;2022-08-05T01:13:47;95239.38;;;17.86;100.00
20077;BME280;12348;42.710;23.378;2022-08-05T01:16:25;95243.78;;;17.69;100.00
20077;BME280;12348;42.710;23.378;2022-08-05T01:19:11;95236.63;;;17.65;100.00
20077;BME280;12348;42.710;23.378;2022-08-05T01:28:22;95240.13;;;17.65;100.00
20077;BME280;12348;42.710;23.378;2022-08-05T01:30:51;95227.84;;;17.59;100.00
20077;BME280;12348;42.710;23.378;2022-08-05T01:33:24;95238.16;;;17.75;100.00
20077;BME280;12348;42.710;23.378;2022-08-05T01:35:55;95241.75;;;17.66;100.00
20077;BME280;12348;42.710;23.378;2022-08-05T01:38:34;95238.88;;;17.63;100.00
20077;BME280;12348;42.710;23.378;2022-08-05T01:41:03;95245.91;;;17.64;100.00
20077;BME280;12348;42.710;23.378;2022-08-05T01:43:36;95250.97;;;17.74;100.00
20077;BME280;12348;42.710;23.378;2022-08-05T01:46:03;95241.41;;;17.68;100.00
20077;BME280;12348;42.710;23.378;2022-08-05T01:48:34;95248.16;;;17.62;100.00
20077;BME280;12348;42.710;23.378;2022-08-05T01:51:02;95246.91;;;17.59;100.00
20077;BME280;12348;42.710;23.378;2022-08-05T01:53:42;95257.34;;;17.57;100.00
20077;BME280;12348;42.710;23.378;2022-08-05T01:56:12;95257.72;;;17.47;100.00
20077;BME280;12348;42.710;23.378;2022-08-05T01:58:50;95250.69;;;17.46;100.00
20077;BME280;12348;42.710;23.378;2022-08-05T02:01:19;95256.03;;;17.34;100.00
20077;BME280;12348;42.710;23.378;2022-08-05T02:03:47;95249.59;;;17.38;100.00
20077;BME280;12348;42.710;23.378;2022-08-05T02:06:17;95243.88;;;17.31;100.00
20077;BME280;12348;42.710;23.378;2022-08-05T02:08:45;95242.16;;;17.27;100.00
20077;BME280;12348;42.710;23.378;2022-08-05T02:11:15;95236.44;;;17.19;100.00
20077;BME280;12348;42.710;23.378;2022-08-05T02:13:50;95242.53;;;17.16;100.00
20077;BME280;12348;42.710;23.378;2022-08-05T02:16:35;95247.03;;;17.12;100.00
20077;BME280;12348;42.710;23.378;2022-08-05T02:19:18;95249.19;;;16.98;100.00
20077;BME280;12348;42.710;23.378;2022-08-05T02:21:51;95240.06;;;16.94;100.00
20077;BME280;12348;42.710;23.378;2022-08-05T02:24:25;95248.88;;;16.91;100.00
20077;BME280;12348;42.710;23.378;2022-08-05T02:26:55;95238.78;;;17.00;100.00
20077;BME280;12348;42.710;23.378;2022-08-05T02:29:28;95248.25;;;16.94;100.00
20077;BME280;12348;42.710;23.378;2022-08-05T02:31:57;95238.34;;;16.89;100.00
20077;BME280;12348;42.710;23.378;2022-08-05T02:34:30;95238.56;;;16.76;100.00
20077;BME280;12348;42.710;23.378;2022-08-05T02:37:02;95240.97;;;16.77;100.00
20077;BME280;12348;42.710;23.378;2022-08-05T02:39:37;95242.88;;;16.68;100.00
20077;BME280;12348;42.710;23.378;2022-08-05T02:42:06;95234.84;;;16.71;100.00
20077;BME280;12348;42.710;23.378;2022-08-05T02:44:43;95245.44;;;16.73;100.00
20077;BME280;12348;42.710;23.378;2022-08-05T02:47:12;95241.44;;;16.70;100.00
20077;BME280;12348;42.710;23.378;2022-08-05T02:49:47;95248.63;;;16.75;100.00
20077;BME280;12348;42.710;23.378;2022-08-05T02:52:17;95231.81;;;16.82;100.00
20077;BME280;12348;42.710;23.378;2022-08-05T02:54:45;95243.00;;;16.89;100.00
20077;BME280;12348;42.710;23.378;2022-08-05T02:57:17;95238.84;;;16.83;100.00
20077;BME280;12348;42.710;23.378;2022-08-05T02:59:48;95235.38;;;16.74;100.00
20077;BME280;12348;42.710;23.378;2022-08-05T03:02:19;95249.56;;;16.79;100.00
20077;BME280;12348;42.710;23.378;2022-08-05T03:04:47;95250.38;;;16.80;100.00
20077;BME280;12348;42.710;23.378;2022-08-05T03:07:24;95242.41;;;16.75;100.00
20077;BME280;12348;42.710;23.378;2022-08-05T03:09:52;95243.56;;;16.56;100.00
20077;BME280;12348;42.710;23.378;2022-08-05T03:12:31;95254.44;;;16.56;100.00
20077;BME280;12348;42.710;23.378;2022-08-05T03:15:00;95248.50;;;16.54;100.00
20077;BME280;12348;42.710;23.378;2022-08-05T03:17:45;95252.66;;;16.60;100.00
20077;BME280;12348;42.710;23.378;2022-08-05T03:20:12;95259.38;;;16.54;100.00
20077;BME280;12348;42.710;23.378;2022-08-05T03:22:40;95259.38;;;16.54;100.00
20077;BME280;12348;42.710;23.378;2022-08-05T03:25:08;95248.38;;;16.51;100.00
20077;BME280;12348;42.710;23.378;2022-08-05T03:27:37;95258.09;;;16.60;100.00
20077;BME280;12348;42.710;23.378;2022-08-05T03:30:08;95254.38;;;16.65;100.00
20077;BME280;12348;42.710;23.378;2022-08-05T03:32:42;95251.53;;;16.61;100.00
20077;BME280;12348;42.710;23.378;2022-08-05T03:35:11;95242.13;;;16.50;100.00
20077;BME280;12348;42.710;23.378;2022-08-05T03:37:43;95246.69;;;17.14;100.00
20077;BME280;12348;42.710;23.378;2022-08-05T03:40:13;95240.94;;;17.45;100.00
20077;BME280;12348;42.710;23.378;2022-08-05T03:42:41;95251.25;;;18.02;100.00
20077;BME280;12348;42.710;23.378;2022-08-05T03:45:11;95253.66;;;18.37;100.00
20077;BME280;12348;42.710;23.378;2022-08-05T03:47:39;95251.28;;;18.93;100.00
20077;BME280;12348;42.710;23.378;2022-08-05T03:50:08;95246.28;;;19.56;100.00
20077;BME280;12348;42.710;23.378;2022-08-05T03:52:41;95253.88;;;20.28;100.00
20077;BME280;12348;42.710;23.378;2022-08-05T03:55:17;95252.72;;;20.57;99.74
20077;BME280;12348;42.710;23.378;2022-08-05T03:57:45;95249.31;;;20.92;94.05
20077;BME280;12348;42.710;23.378;2022-08-05T04:00:16;95254.25;;;20.86;91.79
20077;BME280;12348;42.710;23.378;2022-08-05T04:02:48;95246.56;;;21.39;88.33
20077;BME280;12348;42.710;23.378;2022-08-05T04:05:21;95249.31;;;21.23;88.87
20077;BME280;12348;42.710;23.378;2022-08-05T04:07:53;95250.94;;;21.95;84.90
20077;BME280;12348;42.710;23.378;2022-08-05T04:10:21;95253.91;;;22.41;80.31
20077;BME280;12348;42.710;23.378;2022-08-05T04:12:48;95252.88;;;22.91;78.05
20077;BME280;12348;42.710;23.378;2022-08-05T04:15:20;95252.97;;;23.44;73.77
20077;BME280;12348;42.710;23.378;2022-08-05T04:17:52;95243.97;;;24.01;70.95
20077;BME280;12348;42.710;23.378;2022-08-05T04:20:21;95254.66;;;23.76;69.97
20077;BME280;12348;42.710;23.378;2022-08-05T04:22:54;95244.72;;;24.28;68.37
20077;BME280;12348;42.710;23.378;2022-08-05T04:25:22;95248.75;;;25.08;63.21
20077;BME280;12348;42.710;23.378;2022-08-05T04:27:52;95236.38;;;24.88;63.88
20077;BME280;12348;42.710;23.378;2022-08-05T04:30:20;95230.34;;;25.71;60.59
20077;BME280;12348;42.710;23.378;2022-08-05T04:32:56;95242.53;;;26.40;58.08
20077;BME280;12348;42.710;23.378;2022-08-05T04:35:23;95245.72;;;26.42;56.96
20077;BME280;12348;42.710;23.378;2022-08-05T04:37:50;95239.59;;;25.97;57.78
20077;BME280;12348;42.710;23.378;2022-08-05T04:40:17;95240.69;;;26.65;54.49
20077;BME280;12348;42.710;23.378;2022-08-05T04:42:45;95247.53;;;27.50;52.57
20077;BME280;12348;42.710;23.378;2022-08-05T04:45:12;95245.13;;;28.02;50.13
20077;BME280;12348;42.710;23.378;2022-08-05T04:47:40;95246.19;;;28.44;49.42
20077;BME280;12348;42.710;23.378;2022-08-05T04:50:08;95241.44;;;28.30;49.13
20077;BME280;12348;42.710;23.378;2022-08-05T04:52:38;95241.41;;;29.74;45.69
20077;BME280;12348;42.710;23.378;2022-08-05T04:55:08;95243.75;;;29.27;46.07
20077;BME280;12348;42.710;23.378;2022-08-05T04:57:47;95249.31;;;30.13;43.96
20077;BME280;12348;42.710;23.378;2022-08-05T05:00:15;95232.28;;;30.11;44.66
20077;BME280;12348;42.710;23.378;2022-08-05T05:02:46;95237.13;;;30.41;43.08
20077;BME280;12348;42.710;23.378;2022-08-05T05:05:22;95227.56;;;29.70;44.61
20077;BME280;12348;42.710;23.378;2022-08-05T05:07:51;95232.50;;;30.61;42.73
20077;BME280;12348;42.710;23.378;2022-08-05T05:10:25;95237.66;;;31.21;40.53
20077;BME280;12348;42.710;23.378;2022-08-05T05:12:56;95239.94;;;31.76;39.49
20077;BME280;12348;42.710;23.378;2022-08-05T05:15:23;95228.31;;;30.46;41.73
20077;BME280;12348;42.710;23.378;2022-08-05T05:17:51;95239.00;;;30.82;41.01
20077;BME280;12348;42.710;23.378;2022-08-05T05:20:18;95229.94;;;31.55;40.54
20077;BME280;12348;42.710;23.378;2022-08-05T05:22:45;95234.38;;;31.76;39.65
20077;BME280;12348;42.710;23.378;2022-08-05T05:25:12;95224.44;;;31.01;41.85
20077;BME280;12348;42.710;23.378;2022-08-05T05:27:39;95229.91;;;32.66;38.62
20077;BME280;12348;42.710;23.378;2022-08-05T05:30:11;95236.88;;;32.94;37.20
20077;BME280;12348;42.710;23.378;2022-08-05T05:32:39;95234.81;;;32.78;37.96
20077;BME280;12348;42.710;23.378;2022-08-05T05:35:08;95225.66;;;34.41;35.46
20077;BME280;12348;42.710;23.378;2022-08-05T05:37:47;95237.69;;;34.25;35.63
20077;BME280;12348;42.710;23.378;2022-08-05T05:40:15;95219.16;;;33.86;36.22
20077;BME280;12348;42.710;23.378;2022-08-05T05:42:44;95216.81;;;34.59;35.64
20077;BME280;12348;42.710;23.378;2022-08-05T05:45:12;95239.84;;;36.82;31.88
20077;BME280;12348;42.710;23.378;2022-08-05T05:47:40;95230.69;;;35.90;32.63
20077;BME280;12348;42.710;23.378;2022-08-05T05:50:11;95226.25;;;34.90;33.78
20077;BME280;12348;42.710;23.378;2022-08-05T05:52:39;95235.06;;;36.26;32.28
20077;BME280;12348;42.710;23.378;2022-08-05T05:55:08;95224.22;;;34.78;34.21
20077;BME280;12348;42.710;23.378;2022-08-05T05:57:39;95231.59;;;36.22;32.37
20077;BME280;12348;42.710;23.378;2022-08-05T06:00:08;95227.44;;;35.91;32.12
20077;BME280;12348;42.710;23.378;2022-08-05T06:02:39;95237.47;;;36.14;32.49
20077;BME280;12348;42.710;23.378;2022-08-05T06:05:14;95238.19;;;37.56;30.91
20077;BME280;12348;42.710;23.378;2022-08-05T06:07:44;95236.59;;;38.78;29.05
20077;BME280;12348;42.710;23.378;2022-08-05T06:10:13;95243.00;;;39.82;27.02
20077;BME280;12348;42.710;23.378;2022-08-05T06:12:40;95239.09;;;39.79;27.27
20077;BME280;12348;42.710;23.378;2022-08-05T06:15:10;95235.09;;;39.19;27.72
20077;BME280;12348;42.710;23.378;2022-08-05T06:17:37;95238.44;;;36.77;30.97
20077;BME280;12348;42.710;23.378;2022-08-05T06:20:05;95239.44;;;39.39;28.19
20077;BME280;12348;42.710;23.378;2022-08-05T06:22:34;95241.50;;;39.20;28.45
20077;BME280;12348;42.710;23.378;2022-08-05T06:25:02;95231.22;;;39.50;27.03
20077;BME280;12348;42.710;23.378;2022-08-05T06:27:29;95235.81;;;37.05;30.24
20077;BME280;12348;42.710;23.378;2022-08-05T06:29:56;95245.00;;;37.36;30.16
20077;BME280;12348;42.710;23.378;2022-08-05T06:32:23;95230.47;;;35.84;31.73
20077;BME280;12348;42.710;23.378;2022-08-05T06:34:50;95235.63;;;36.77;30.65
20077;BME280;12348;42.710;23.378;2022-08-05T06:37:17;95224.88;;;34.95;34.32
20077;BME280;12348;42.710;23.378;2022-08-05T06:39:45;95232.06;;;35.85;32.82
20077;BME280;12348;42.710;23.378;2022-08-05T06:42:12;95230.38;;;37.10;30.89
20077;BME280;12348;42.710;23.378;2022-08-05T06:44:40;95234.25;;;35.30;33.28
20077;BME280;12348;42.710;23.378;2022-08-05T06:47:08;95230.25;;;33.57;36.84
20077;BME280;12348;42.710;23.378;2022-08-05T06:49:35;95226.13;;;34.94;34.89
20077;BME280;12348;42.710;23.378;2022-08-05T06:52:03;95228.44;;;35.98;33.14
20077;BME280;12348;42.710;23.378;2022-08-05T06:54:30;95230.25;;;37.23;30.97
20077;BME280;12348;42.710;23.378;2022-08-05T06:56:59;95224.84;;;37.88;29.31
20077;BME280;12348;42.710;23.378;2022-08-05T06:59:26;95228.47;;;36.85;31.60
20077;BME280;12348;42.710;23.378;2022-08-05T07:01:55;95225.13;;;36.69;31.59
20077;BME280;12348;42.710;23.378;2022-08-05T07:04:24;95220.69;;;35.89;32.30
20077;BME280;12348;42.710;23.378;2022-08-05T07:06:51;95221.53;;;37.71;30.64
20077;BME280;12348;42.710;23.378;2022-08-05T07:09:18;95221.59;;;38.72;29.24
20077;BME280;12348;42.710;23.378;2022-08-05T07:11:47;95215.66;;;38.61;28.41
20077;BME280;12348;42.710;23.378;2022-08-05T07:14:15;95223.97;;;36.00;31.87
20077;BME280;12348;42.710;23.378;2022-08-05T07:17:00;95225.50;;;35.41;33.89
20077;BME280;12348;42.710;23.378;2022-08-05T07:19:27;95218.94;;;34.38;36.58
20077;BME280;12348;42.710;23.378;2022-08-05T07:21:55;95229.28;;;35.21;35.76
20077;BME280;12348;42.710;23.378;2022-08-05T07:24:22;95218.28;;;37.01;32.51
20077;BME280;12348;42.710;23.378;2022-08-05T07:26:49;95212.50;;;35.34;35.14
20077;BME280;12348;42.710;23.378;2022-08-05T07:29:18;95222.38;;;35.99;34.30
20077;BME280;12348;42.710;23.378;2022-08-05T07:31:45;95217.41;;;33.92;36.71
20077;BME280;12348;42.710;23.378;2022-08-05T07:34:12;95220.44;;;35.96;32.99
20077;BME280;12348;42.710;23.378;2022-08-05T07:36:39;95220.84;;;34.83;33.80
20077;BME280;12348;42.710;23.378;2022-08-05T07:39:07;95216.81;;;35.74;32.37
20077;BME280;12348;42.710;23.378;2022-08-05T07:41:35;95209.63;;;36.20;31.38
20077;BME280;12348;42.710;23.378;2022-08-05T07:44:03;95216.53;;;37.66;29.86
20077;BME280;12348;42.710;23.378;2022-08-05T07:46:32;95218.28;;;37.01;30.50
20077;BME280;12348;42.710;23.378;2022-08-05T07:49:00;95214.81;;;36.65;31.19
20077;BME280;12348;42.710;23.378;2022-08-05T07:51:27;95211.91;;;37.41;30.06
20077;BME280;12348;42.710;23.378;2022-08-05T07:53:54;95211.94;;;38.18;29.12
20077;BME280;12348;42.710;23.378;2022-08-05T07:56:28;95221.09;;;37.81;29.61
20077;BME280;12348;42.710;23.378;2022-08-05T07:58:55;95213.38;;;37.54;29.46
20077;BME280;12348;42.710;23.378;2022-08-05T08:01:22;95205.03;;;37.91;29.06
20077;BME280;12348;42.710;23.378;2022-08-05T08:03:52;95206.44;;;38.60;27.85
20077;BME280;12348;42.710;23.378;2022-08-05T08:06:18;95207.38;;;38.20;27.73
20077;BME280;12348;42.710;23.378;2022-08-05T08:08:45;95211.03;;;37.12;29.34
20077;BME280;12348;42.710;23.378;2022-08-05T08:11:12;95211.16;;;38.45;27.68
20077;BME280;12348;42.710;23.378;2022-08-05T08:13:40;95208.25;;;38.91;27.19
20077;BME280;12348;42.710;23.378;2022-08-05T08:16:08;95207.81;;;39.35;25.84
20077;BME280;12348;42.710;23.378;2022-08-05T08:18:35;95203.88;;;37.61;28.36
20077;BME280;12348;42.710;23.378;2022-08-05T08:21:04;95197.66;;;37.84;28.13
20077;BME280;12348;42.710;23.378;2022-08-05T08:23:31;95209.03;;;36.60;30.32
20077;BME280;12348;42.710;23.378;2022-08-05T08:25:58;95193.34;;;36.28;30.77
20077;BME280;12348;42.710;23.378;2022-08-05T08:28:26;95199.53;;;37.69;29.40
20077;BME280;12348;42.710;23.378;2022-08-05T08:30:52;95207.94;;;37.78;29.06
20077;BME280;12348;42.710;23.378;2022-08-05T08:33:19;95187.34;;;38.64;28.14
20077;BME280;12348;42.710;23.378;2022-08-05T08:35:46;95194.69;;;38.71;28.50
20077;BME280;12348;42.710;23.378;2022-08-05T08:38:15;95196.66;;;39.73;27.40
20077;BME280;12348;42.710;23.378;2022-08-05T08:40:42;95184.72;;;38.42;27.07
20077;BME280;12348;42.710;23.378;2022-08-05T08:43:11;95180.63;;;37.70;28.97
20077;BME280;12348;42.710;23.378;2022-08-05T08:45:39;95181.31;;;38.99;27.18
20077;BME280;12348;42.710;23.378;2022-08-05T08:48:07;95183.19;;;39.44;26.32
20077;BME280;12348;42.710;23.378;2022-08-05T08:50:39;95188.88;;;39.92;25.29
20077;BME280;12348;42.710;23.378;2022-08-05T08:53:07;95183.44;;;39.56;25.31
20077;BME280;12348;42.710;23.378;2022-08-05T08:55:37;95182.69;;;36.67;28.83
20077;BME280;12348;42.710;23.378;2022-08-05T08:58:04;95178.00;;;38.30;27.43
20077;BME280;12348;42.710;23.378;2022-08-05T09:00:32;95174.00;;;38.92;26.97
20077;BME280;12348;42.710;23.378;2022-08-05T09:02:59;95172.56;;;39.39;26.36
20077;BME280;12348;42.710;23.378;2022-08-05T09:05:27;95172.72;;;39.93;25.47
20077;BME280;12348;42.710;23.378;2022-08-05T09:07:54;95175.53;;;39.93;25.26
20077;BME280;12348;42.710;23.378;2022-08-05T09:10:22;95167.50;;;40.84;24.44
20077;BME280;12348;42.710;23.378;2022-08-05T09:12:50;95167.47;;;40.54;24.94
20077;BME280;12348;42.710;23.378;2022-08-05T09:15:17;95164.72;;;41.69;23.54
20077;BME280;12348;42.710;23.378;2022-08-05T09:17:46;95157.06;;;41.55;23.58
20077;BME280;12348;42.710;23.378;2022-08-05T09:20:13;95165.53;;;41.20;23.53
20077;BME280;12348;42.710;23.378;2022-08-05T09:23:09;95155.97;;;40.28;23.84
20077;BME280;12348;42.710;23.378;2022-08-05T09:25:38;95142.97;;;38.50;24.90
20077;BME280;12348;42.710;23.378;2022-08-05T09:28:14;95145.97;;;38.00;26.38
20077;BME280;12348;42.710;23.378;2022-08-05T09:30:43;95138.06;;;37.40;27.08
20077;BME280;12348;42.710;23.378;2022-08-05T09:33:13;95128.91;;;37.85;26.98
20077;BME280;12348;42.710;23.378;2022-08-05T09:36:01;95133.69;;;38.68;25.96
20077;BME280;12348;42.710;23.378;2022-08-05T09:38:30;95134.94;;;39.09;25.28
20077;BME280;12348;42.710;23.378;2022-08-05T09:41:04;95127.16;;;39.37;25.61
20077;BME280;12348;42.710;23.378;2022-08-05T09:43:35;95130.31;;;40.02;24.04
20077;BME280;12348;42.710;23.378;2022-08-05T09:46:06;95130.66;;;39.56;23.89
20077;BME280;12348;42.710;23.378;2022-08-05T09:48:36;95121.38;;;40.57;23.08
20077;BME280;12348;42.710;23.378;2022-08-05T09:51:07;95132.44;;;40.46;22.50
20077;BME280;12348;42.710;23.378;2022-08-05T09:53:46;95114.66;;;41.20;22.02
20077;BME280;12348;42.710;23.378;2022-08-05T09:56:13;95128.13;;;41.45;21.69
20077;BME280;12348;42.710;23.378;2022-08-05T09:58:59;95120.50;;;41.72;21.89
20077;BME280;12348;42.710;23.378;2022-08-05T10:01:29;95114.13;;;41.97;21.97
20077;BME280;12348;42.710;23.378;2022-08-05T10:03:59;95118.94;;;42.11;21.22
20077;BME280;12348;42.710;23.378;2022-08-05T10:06:29;95110.22;;;42.35;21.35
20077;BME280;12348;42.710;23.378;2022-08-05T10:09:10;95109.16;;;41.31;22.53
20077;BME280;12348;42.710;23.378;2022-08-05T10:11:37;95106.75;;;41.24;22.42
20077;BME280;12348;42.710;23.378;2022-08-05T10:14:21;95102.28;;;41.37;22.94
20077;BME280;12348;42.710;23.378;2022-08-05T10:16:49;95108.63;;;41.47;22.34
20077;BME280;12348;42.710;23.378;2022-08-05T10:19:17;95100.94;;;41.12;22.82
20077;BME280;12348;42.710;23.378;2022-08-05T10:21:44;95103.19;;;41.08;22.92
20077;BME280;12348;42.710;23.378;2022-08-05T10:24:22;95104.03;;;41.14;22.03
20077;BME280;12348;42.710;23.378;2022-08-05T10:26:56;95089.03;;;38.94;23.46
20077;BME280;12348;42.710;23.378;2022-08-05T10:29:27;95090.75;;;38.49;24.68
20077;BME280;12348;42.710;23.378;2022-08-05T10:31:58;95089.63;;;37.18;26.22
20077;BME280;12348;42.710;23.378;2022-08-05T10:34:27;95089.75;;;38.61;24.61
20077;BME280;12348;42.710;23.378;2022-08-05T10:37:04;95082.53;;;39.36;23.60
20077;BME280;12348;42.710;23.378;2022-08-05T10:39:49;95085.34;;;37.99;24.64
20077;BME280;12348;42.710;23.378;2022-08-05T10:42:23;95085.00;;;38.25;24.77
20077;BME280;12348;42.710;23.378;2022-08-05T10:44:56;95080.34;;;38.73;23.98
20077;BME280;12348;42.710;23.378;2022-08-05T10:47:30;95082.50;;;38.78;24.23
20077;BME280;12348;42.710;23.378;2022-08-05T10:50:10;95075.41;;;38.50;24.92
20077;BME280;12348;42.710;23.378;2022-08-05T10:52:42;95074.19;;;37.22;26.11
20077;BME280;12348;42.710;23.378;2022-08-05T10:55:12;95067.06;;;38.04;24.60
20077;BME280;12348;42.710;23.378;2022-08-05T10:57:40;95059.53;;;37.36;25.62
20077;BME280;12348;42.710;23.378;2022-08-05T11:00:14;95059.13;;;37.47;25.31
20077;BME280;12348;42.710;23.378;2022-08-05T11:03:07;95056.50;;;36.94;26.06
20077;BME280;12348;42.710;23.378;2022-08-05T11:05:37;95052.94;;;37.03;26.17
20077;BME280;12348;42.710;23.378;2022-08-05T11:08:07;95049.00;;;35.76;27.28
20077;BME280;12348;42.710;23.378;2022-08-05T11:10:35;95062.41;;;35.24;27.83
20077;BME280;12348;42.710;23.378;2022-08-05T11:13:03;95054.41;;;35.01;28.08
20077;BME280;12348;42.710;23.378;2022-08-05T11:15:34;95047.00;;;34.43;28.71
20077;BME280;12348;42.710;23.378;2022-08-05T11:18:21;95048.81;;;34.37;28.79
20077;BME280;12348;42.710;23.378;2022-08-05T11:20:51;95049.50;;;34.66;29.65
20077;BME280;12348;42.710;23.378;2022-08-05T11:23:33;95043.56;;;34.77;28.50
20077;BME280;12348;42.710;23.378;2022-08-05T11:26:05;95048.81;;;35.01;28.08
20077;BME280;12348;42.710;23.378;2022-08-05T11:28:45;95055.88;;;33.41;29.57
20077;BME280;12348;42.710;23.378;2022-08-05T11:31:40;95033.50;;;33.87;29.93
20077;BME280;12348;42.710;23.378;2022-08-05T11:34:08;95024.97;;;34.32;29.53
20077;BME280;12348;42.710;23.378;2022-08-05T11:36:46;95036.59;;;34.69;29.12
20077;BME280;12348;42.710;23.378;2022-08-05T11:39:45;95024.97;;;34.70;28.82
20077;BME280;12348;42.710;23.378;2022-08-05T11:42:05;95028.88;;;34.73;29.24
20077;BME280;12348;42.710;23.378;2022-08-05T11:44:39;95037.72;;;34.08;29.28
20077;BME280;12348;42.710;23.378;2022-08-05T11:47:08;95036.88;;;32.91;30.88
20077;BME280;12348;42.710;23.378;2022-08-05T11:49:54;95026.81;;;32.44;31.35
20077;BME280;12348;42.710;23.378;2022-08-05T11:52:23;95038.16;;;32.70;31.13
20077;BME280;12348;42.710;23.378;2022-08-05T11:54:56;95034.41;;;32.93;31.19
20077;BME280;12348;42.710;23.378;2022-08-05T11:57:27;95027.84;;;33.16;30.49
20077;BME280;12348;42.710;23.378;2022-08-05T11:59:57;95027.09;;;32.82;30.72
20077;BME280;12348;42.710;23.378;2022-08-05T12:02:27;95023.69;;;32.75;30.98
20077;BME280;12348;42.710;23.378;2022-08-05T12:05:03;95017.06;;;32.85;30.67
20077;BME280;12348;42.710;23.378;2022-08-05T12:07:34;95023.13;;;33.29;30.67
20077;BME280;12348;42.710;23.378;2022-08-05T12:10:06;95019.59;;;33.58;30.44
20077;BME280;12348;42.710;23.378;2022-08-05T12:12:36;95014.34;;;34.27;29.96
20077;BME280;12348;42.710;23.378;2022-08-05T12:15:04;95013.75;;;34.83;29.27
20077;BME280;12348;42.710;23.378;2022-08-05T12:17:38;95010.84;;;35.34;28.98
20077;BME280;12348;42.710;23.378;2022-08-05T12:20:08;95016.50;;;35.56;29.14
20077;BME280;12348;42.710;23.378;2022-08-05T12:22:37;95015.63;;;35.12;29.54
20077;BME280;12348;42.710;23.378;2022-08-05T12:25:05;95006.31;;;35.15;29.14
20077;BME280;12348;42.710;23.378;2022-08-05T12:27:54;95010.25;;;35.39;29.95
20077;BME280;12348;42.710;23.378;2022-08-05T12:30:21;95007.94;;;35.25;29.08
20077;BME280;12348;42.710;23.378;2022-08-05T12:32:50;95006.19;;;34.71;29.74
20077;BME280;12348;42.710;23.378;2022-08-05T12:35:20;95004.06;;;34.49;29.91
20077;BME280;12348;42.710;23.378;2022-08-05T12:37:57;95009.84;;;34.17;30.02
20077;BME280;12348;42.710;23.378;2022-08-05T12:40:27;94999.38;;;33.79;31.47
20077;BME280;12348;42.710;23.378;2022-08-05T12:42:57;95006.94;;;33.95;30.76
20077;BME280;12348;42.710;23.378;2022-08-05T12:45:24;94989.72;;;34.09;30.88
20077;BME280;12348;42.710;23.378;2022-08-05T12:47:53;94993.19;;;34.00;30.64
20077;BME280;12348;42.710;23.378;2022-08-05T12:50:20;94991.34;;;33.81;30.84
20077;BME280;12348;42.710;23.378;2022-08-05T12:52:54;94985.91;;;33.48;31.06
20077;BME280;12348;42.710;23.378;2022-08-05T12:55:25;94985.84;;;33.65;29.55
20077;BME280;12348;42.710;23.378;2022-08-05T12:57:53;94979.75;;;33.95;29.42
20077;BME280;12348;42.710;23.378;2022-08-05T13:00:21;94971.06;;;34.06;29.72
20077;BME280;12348;42.710;23.378;2022-08-05T13:02:55;94971.28;;;34.12;29.33
20077;BME280;12348;42.710;23.378;2022-08-05T13:05:25;94975.09;;;34.18;30.07
20077;BME280;12348;42.710;23.378;2022-08-05T13:07:56;94976.78;;;34.15;29.38
20077;BME280;12348;42.710;23.378;2022-08-05T13:10:24;94972.06;;;33.99;30.02
20077;BME280;12348;42.710;23.378;2022-08-05T13:12:55;94970.16;;;34.09;29.92